createdAt,value
2022-10-13T00:03:35.351Z,3.72
2022-10-13T00:09:07.642Z,3.53
2022-10-13T00:14:38.934Z,3.65
2022-10-13T00:20:11.162Z,3.60
2022-10-13T00:25:44.357Z,3.53
2022-10-13T00:31:22.811Z,3.25
2022-10-13T00:36:53.753Z,3.53
2022-10-13T00:42:26.876Z,3.65
2022-10-13T00:47:59.506Z,3.60
2022-10-13T00:53:33.570Z,3.73
2022-10-13T00:59:09.097Z,3.03
2022-10-13T01:04:43.808Z,3.28
2022-10-13T01:10:24.959Z,3.40
2022-10-13T01:16:13.825Z,4.28
2022-10-13T01:22:02.857Z,3.50
2022-10-13T01:27:37.517Z,3.65
2022-10-13T01:33:20.672Z,3.67
2022-10-13T01:39:06.710Z,3.53
2022-10-13T01:44:41.645Z,3.15
2022-10-13T01:50:14.458Z,3.75
2022-10-13T01:55:57.606Z,3.63
2022-10-13T02:01:28.480Z,3.47
2022-10-13T02:07:08.905Z,3.35
2022-10-13T02:12:49.385Z,3.78
2022-10-13T02:18:24.120Z,3.80
2022-10-13T02:23:55.360Z,3.72
2022-10-13T02:29:26.517Z,3.75
2022-10-13T02:34:57.805Z,4.10
2022-10-13T02:40:29.181Z,3.90
2022-10-13T02:46:00.448Z,3.53
2022-10-13T02:51:36.200Z,3.28
2022-10-13T02:57:10.260Z,3.78
2022-10-13T03:02:41.249Z,3.53
2022-10-13T03:08:12.465Z,3.58
2022-10-13T03:13:44.640Z,3.55
2022-10-13T03:19:15.723Z,3.40
2022-10-13T03:24:46.672Z,3.50
2022-10-13T03:30:17.616Z,3.72
2022-10-13T03:35:48.767Z,3.25
2022-10-13T03:41:19.988Z,3.45
2022-10-13T03:46:54.111Z,3.72
2022-10-13T03:52:25.191Z,3.10
2022-10-13T03:57:56.411Z,3.50
2022-10-13T04:03:27.982Z,3.20
2022-10-13T04:08:59.488Z,3.78
2022-10-13T04:14:30.424Z,3.85
2022-10-13T04:20:09.620Z,3.42
2022-10-13T04:25:41.228Z,3.70
2022-10-13T04:31:13.928Z,3.33
2022-10-13T04:36:45.321Z,3.83
2022-10-13T04:42:16.673Z,4.00
2022-10-13T04:47:47.678Z,3.50
2022-10-13T04:53:20.754Z,3.53
2022-10-13T04:58:51.707Z,4.00
2022-10-13T05:04:23.170Z,4.30
2022-10-13T05:09:54.625Z,4.00
2022-10-13T05:15:25.523Z,3.83
2022-10-13T05:20:56.728Z,3.78
2022-10-13T05:26:29.403Z,3.35
2022-10-13T05:32:00.961Z,3.28
2022-10-13T05:37:32.129Z,3.78
2022-10-13T05:43:02.930Z,3.63
2022-10-13T05:48:34.782Z,3.90
2022-10-13T05:54:17.836Z,3.63
2022-10-13T06:00:16.255Z,4.03
2022-10-13T06:05:47.844Z,3.42
2022-10-13T06:11:19.122Z,3.83
2022-10-13T06:16:50.363Z,3.97
2022-10-13T06:22:22.575Z,4.20
2022-10-13T06:27:53.923Z,3.88
2022-10-13T06:33:25.411Z,4.00
2022-10-13T06:38:56.591Z,3.63
2022-10-13T06:44:28.151Z,3.53
2022-10-13T06:50:06.032Z,4.22
2022-10-13T06:55:37.090Z,4.22
2022-10-13T07:01:09.486Z,4.00
2022-10-13T07:06:40.479Z,4.10
2022-10-13T07:12:13.903Z,4.30
2022-10-13T07:17:45.113Z,4.10
2022-10-13T07:23:16.472Z,3.78
2022-10-13T07:28:47.388Z,4.22
2022-10-13T07:34:18.693Z,4.47
2022-10-13T07:39:49.558Z,4.10
2022-10-13T07:45:20.979Z,4.30
2022-10-13T07:50:52.614Z,4.18
2022-10-13T07:56:23.816Z,4.00
2022-10-13T08:01:55.118Z,4.65
2022-10-13T08:07:26.453Z,3.63
2022-10-13T08:12:57.614Z,4.00
2022-10-13T08:18:29.949Z,3.97
2022-10-13T08:24:00.741Z,4.47
2022-10-13T08:29:31.929Z,3.92
2022-10-13T08:35:04.382Z,4.15
2022-10-13T08:40:36.250Z,4.28
2022-10-13T08:46:09.310Z,3.50
2022-10-13T08:51:40.653Z,4.13
2022-10-13T08:57:12.581Z,4.57
2022-10-13T09:02:45.405Z,4.90
2022-10-13T09:08:20.339Z,4.22
2022-10-13T09:13:55.409Z,5.20
2022-10-13T09:19:34.378Z,4.25
2022-10-13T09:25:11.408Z,4.50
2022-10-13T09:30:44.293Z,3.67
2022-10-13T09:36:16.446Z,4.20
2022-10-13T09:41:51.351Z,4.72
2022-10-13T09:47:22.507Z,4.72
2022-10-13T09:53:30.213Z,4.05
2022-10-13T09:59:10.720Z,4.22
2022-10-13T10:04:43.510Z,4.22
2022-10-13T10:10:36.138Z,4.63
2022-10-13T10:16:30.442Z,5.32
2022-10-13T10:22:04.332Z,4.80
2022-10-13T10:27:56.679Z,4.53
2022-10-13T10:33:44.388Z,5.13
2022-10-13T10:39:18.775Z,4.60
2022-10-13T10:44:51.740Z,4.72
2022-10-13T10:50:23.983Z,4.53
2022-10-13T10:56:35.710Z,4.78
2022-10-13T11:02:07.530Z,4.88
2022-10-13T11:07:38.713Z,4.75
2022-10-13T11:13:17.681Z,5.15
2022-10-13T11:19:28.986Z,5.28
2022-10-13T11:25:42.038Z,5.18
2022-10-13T11:31:13.100Z,4.90
2022-10-13T11:36:50.364Z,4.72
2022-10-13T11:42:48.388Z,5.30
2022-10-13T11:48:41.233Z,5.18
2022-10-13T11:54:30.438Z,5.13
2022-10-13T12:00:01.550Z,5.32
2022-10-13T12:05:43.906Z,5.55
2022-10-13T12:11:30.630Z,5.05
2022-10-13T12:17:02.645Z,5.47
2022-10-13T12:22:36.839Z,6.15
2022-10-13T12:28:19.353Z,5.30
2022-10-13T12:34:01.958Z,5.40
2022-10-13T12:39:34.115Z,5.57
2022-10-13T12:45:05.694Z,5.28
2022-10-13T12:50:38.036Z,5.50
2022-10-13T12:56:19.464Z,5.38
2022-10-13T13:02:04.565Z,5.45
2022-10-13T13:07:37.650Z,5.55
2022-10-13T13:13:15.452Z,4.85
2022-10-13T13:18:47.796Z,5.95
2022-10-13T13:30:17.027Z,5.65
2022-10-13T13:35:49.286Z,6.32
2022-10-13T13:41:21.395Z,6.10
2022-10-13T13:46:52.235Z,5.72
2022-10-13T13:52:24.458Z,5.60
2022-10-13T13:57:55.487Z,5.30
2022-10-13T14:03:26.672Z,5.43
2022-10-13T14:08:57.665Z,5.75
2022-10-13T14:14:31.837Z,6.05
2022-10-13T14:20:02.856Z,5.53
2022-10-13T14:25:34.364Z,5.30
2022-10-13T14:31:06.659Z,5.18
2022-10-13T14:36:40.012Z,5.47
2022-10-13T14:42:11.658Z,5.43
2022-10-13T14:47:43.013Z,5.95
2022-10-13T14:53:17.766Z,5.68
2022-10-13T14:58:50.522Z,5.35
2022-10-13T15:04:21.943Z,5.22
2022-10-13T15:10:04.333Z,5.53
2022-10-13T15:15:37.344Z,5.10
2022-10-13T15:21:08.463Z,5.22
2022-10-13T15:26:39.697Z,5.20
2022-10-13T15:32:18.737Z,5.05
2022-10-13T15:37:59.107Z,5.57
2022-10-13T15:43:30.007Z,5.40
2022-10-13T15:49:00.976Z,5.28
2022-10-13T15:54:31.979Z,5.15
2022-10-13T16:00:05.419Z,4.95
2022-10-13T16:05:44.416Z,5.13
2022-10-13T16:11:17.281Z,5.67
2022-10-13T16:16:48.320Z,5.22
2022-10-13T16:22:19.703Z,5.10
2022-10-13T16:27:51.025Z,5.63
2022-10-13T16:33:21.976Z,5.80
2022-10-13T16:38:55.139Z,5.55
2022-10-13T16:44:26.293Z,5.28
2022-10-13T16:49:57.141Z,5.18
2022-10-13T16:55:28.074Z,5.68
2022-10-13T17:01:08.941Z,5.72
2022-10-13T17:06:41.241Z,6.03
2022-10-13T17:12:12.226Z,5.80
2022-10-13T17:17:43.623Z,5.88
2022-10-13T17:23:17.453Z,5.22
2022-10-13T17:28:48.501Z,5.00
2022-10-13T17:34:19.875Z,5.47
2022-10-13T17:39:52.580Z,5.70
2022-10-13T17:45:25.248Z,5.25
2022-10-13T17:50:56.223Z,5.88
2022-10-13T17:56:27.979Z,5.70
2022-10-13T18:01:59.173Z,5.25
2022-10-13T18:07:30.314Z,6.13
2022-10-13T18:13:01.302Z,5.95
2022-10-13T18:18:33.028Z,5.38
2022-10-13T18:24:04.549Z,6.15
2022-10-13T18:29:35.936Z,5.75
2022-10-13T18:35:07.954Z,6.20
2022-10-13T18:40:39.200Z,5.72
2022-10-13T18:46:10.800Z,5.55
2022-10-13T18:51:41.774Z,5.97
2022-10-13T18:57:13.130Z,6.07
2022-10-13T19:02:44.359Z,7.22
2022-10-13T19:08:15.374Z,6.97
2022-10-13T19:13:47.638Z,6.32
2022-10-13T19:19:19.116Z,7.57
2022-10-13T19:24:50.951Z,7.03
2022-10-13T19:30:26.563Z,7.20
2022-10-13T19:35:57.611Z,7.03
2022-10-13T19:41:29.920Z,7.65
2022-10-13T19:47:00.719Z,6.57
2022-10-13T19:52:31.634Z,7.22
2022-10-13T19:58:02.923Z,7.47
2022-10-13T20:03:34.624Z,5.93
2022-10-13T20:09:06.332Z,6.50
2022-10-13T20:14:37.568Z,6.13
2022-10-13T20:20:09.011Z,5.85
2022-10-13T20:25:40.092Z,6.47
2022-10-13T20:31:12.978Z,6.85
2022-10-13T20:36:44.509Z,5.88
2022-10-13T20:42:15.542Z,6.35
2022-10-13T20:47:47.157Z,7.35
2022-10-13T20:53:18.294Z,6.57
2022-10-13T20:58:51.403Z,6.32
2022-10-13T21:04:22.445Z,6.35
2022-10-13T21:09:54.050Z,6.15
2022-10-13T21:15:25.736Z,6.35
2022-10-13T21:21:05.880Z,6.10
2022-10-13T21:26:38.433Z,6.13
2022-10-13T21:32:09.910Z,6.07
2022-10-13T21:37:41.096Z,5.97
2022-10-13T21:43:12.094Z,5.60
2022-10-13T21:48:44.280Z,5.82
2022-10-13T21:54:15.618Z,6.80
2022-10-13T21:59:47.270Z,6.35
2022-10-13T22:05:18.389Z,6.53
2022-10-13T22:10:57.278Z,6.35
2022-10-13T22:16:32.275Z,6.05
2022-10-13T22:22:03.639Z,6.30
2022-10-13T22:27:34.571Z,6.75
2022-10-13T22:33:05.886Z,6.43
2022-10-13T22:38:37.185Z,6.40
2022-10-13T22:44:10.211Z,7.23
2022-10-13T22:49:41.415Z,6.63
2022-10-13T22:55:13.887Z,7.05
2022-10-13T23:00:44.946Z,6.40
2022-10-13T23:06:17.401Z,6.47
2022-10-13T23:11:48.371Z,6.72
2022-10-13T23:17:24.369Z,6.80
2022-10-13T23:22:55.566Z,6.82
2022-10-13T23:28:26.848Z,7.03
2022-10-13T23:34:00.107Z,7.22
2022-10-13T23:39:31.590Z,7.32
2022-10-13T23:45:02.512Z,6.65
2022-10-13T23:50:34.235Z,7.32
2022-10-13T23:56:07.144Z,6.97
